Time;durP1;ratioP1;P1;durP2;ratioP2;P2;SDS_P1;SDS_P2;PMS_P1;PMS_P2;Temp;Humidity;BMP_temperature;BMP_pressure;BME280_temperature;BME280_humidity;BME280_pressure;Samples;Min_cycle;Max_cycle;Signal;HPM_P1;HPM_P2
2022/07/21 04:18:26;;;;;;;8.20;4.78;;;;;;;22.73;42.80;101260.66;5104837;27;20931;-84
2022/07/21 04:20:52;;;;;;;13.57;6.85;;;;;;;22.75;42.22;101261.34;5062763;28;20028;-88
2022/07/21 04:23:17;;;;;;;8.95;5.20;;;;;;;22.90;42.23;101273.16;5090068;28;20027;-86
2022/07/21 04:25:43;;;;;;;8.88;5.32;;;;;;;23.04;42.46;101269.28;5073285;28;20039;-93
2022/07/21 04:28:08;;;;;;;7.22;4.97;;;;;;;23.26;42.05;101277.88;5072838;28;20080;-92
2022/07/21 04:30:34;;;;;;;7.80;4.75;;;;;;;23.35;41.33;101269.94;5089408;28;20028;-90
2022/07/21 04:32:59;;;;;;;6.53;5.18;;;;;;;23.51;41.29;101277.28;5074401;28;20382;-91
2022/07/21 04:35:25;;;;;;;8.23;4.70;;;;;;;23.58;41.14;101280.97;5056193;28;20100;-86
2022/07/21 04:37:50;;;;;;;7.13;4.70;;;;;;;23.65;40.92;101283.91;5089387;28;20027;-86
2022/07/21 04:40:16;;;;;;;7.35;4.78;;;;;;;23.72;40.61;101291.13;5056017;28;20508;-86
2022/07/21 04:42:41;;;;;;;6.53;4.80;;;;;;;23.80;40.85;101292.22;5072367;28;20055;-84
2022/07/21 04:45:07;;;;;;;9.80;5.40;;;;;;;23.97;40.71;101286.16;5089310;28;20404;-84
2022/07/21 04:47:43;;;;;;;7.47;4.97;;;;;;;23.85;40.99;101263.53;5072878;28;20497;-88
2022/07/21 04:50:09;;;;;;;12.10;5.10;;;;;;;24.09;40.93;101284.16;5073016;28;20406;-86
2022/07/21 04:52:35;;;;;;;8.35;5.65;;;;;;;24.14;40.85;101280.09;5071897;28;20035;-85
2022/07/21 04:55:00;;;;;;;9.32;6.28;;;;;;;24.21;41.18;101272.41;5072473;28;20040;-94
2022/07/21 04:57:26;;;;;;;14.80;9.10;;;;;;;24.23;41.17;101279.22;5072576;28;20109;-84
2022/07/21 04:59:52;;;;;;;16.08;11.20;;;;;;;24.27;41.21;101285.84;5088034;28;20039;-85
2022/07/21 05:02:17;;;;;;;15.02;7.32;;;;;;;24.34;41.01;101278.22;5071680;28;20024;-88
2022/07/21 05:04:43;;;;;;;13.70;6.30;;;;;;;24.47;41.69;101289.25;5088570;28;20031;-90
2022/07/21 05:07:08;;;;;;;13.75;6.45;;;;;;;24.55;41.47;101285.88;5071576;28;20032;-87
2022/07/21 05:09:34;;;;;;;14.43;7.00;;;;;;;24.50;41.39;101267.81;5096966;28;20031;-84
2022/07/21 05:11:59;;;;;;;15.38;7.55;;;;;;;24.71;41.16;101283.41;5107599;28;20532;-87
2022/07/21 05:14:25;;;;;;;11.63;6.53;;;;;;;24.78;41.23;101292.41;5089259;28;20031;-91
2022/07/21 05:16:50;;;;;;;13.45;7.20;;;;;;;24.88;41.47;101287.84;5074674;28;20168;-95
2022/07/21 05:19:16;;;;;;;12.32;6.60;;;;;;;25.00;41.60;101298.22;5051777;28;20586;-89
2022/07/21 05:21:41;;;;;;;15.05;6.82;;;;;;;25.08;41.26;101287.72;5073346;28;20027;-94
2022/07/21 05:24:07;;;;;;;12.70;6.75;;;;;;;25.17;41.49;101294.72;5054938;28;20035;-94
2022/07/21 05:26:33;;;;;;;12.43;6.43;;;;;;;25.27;41.77;101303.44;5054883;28;20035;-91
2022/07/21 05:28:58;;;;;;;9.73;6.18;;;;;;;25.37;41.43;101292.75;5079755;28;20024;-91
2022/07/21 05:31:24;;;;;;;13.80;5.82;;;;;;;25.40;41.45;101285.31;5060262;28;20556;-86
2022/07/21 05:33:49;;;;;;;7.22;5.32;;;;;;;25.56;40.90;101292.50;5094426;28;20149;-89
2022/07/21 05:36:15;;;;;;;8.82;5.53;;;;;;;25.61;41.06;101300.00;5060268;28;20031;-88
2022/07/21 05:38:40;;;;;;;9.70;5.32;;;;;;;25.72;40.58;101310.38;5077858;28;20059;-89
2022/07/21 05:41:06;;;;;;;11.57;5.78;;;;;;;25.84;40.45;101295.00;5096280;28;20024;-89
2022/07/21 05:43:31;;;;;;;10.90;5.30;;;;;;;25.97;40.15;101300.72;5113051;28;20035;-89
2022/07/21 05:45:57;;;;;;;6.28;5.28;;;;;;;25.97;39.96;101285.66;5061934;28;20043;-84
2022/07/21 05:48:23;;;;;;;11.63;4.97;;;;;;;26.20;39.05;101301.81;5078515;28;20036;-87
2022/07/21 05:50:48;;;;;;;9.40;4.95;;;;;;;26.25;39.02;101288.91;5077580;28;20023;-86
2022/07/21 05:53:14;;;;;;;28.95;20.10;;;;;;;26.40;39.15;101306.88;5094924;28;20035;-86
2022/07/21 05:55:39;;;;;;;10.45;6.78;;;;;;;26.45;37.93;101294.81;5078058;28;20129;-86
2022/07/21 05:58:05;;;;;;;11.02;5.72;;;;;;;26.51;37.97;101295.97;5077794;28;20024;-86
2022/07/21 06:00:30;;;;;;;8.15;5.00;;;;;;;26.65;37.67;101289.19;5113001;28;20043;-89
2022/07/21 06:02:56;;;;;;;10.40;6.00;;;;;;;26.66;37.15;101274.94;5080439;28;20067;-85
2022/07/21 06:05:21;;;;;;;16.80;7.13;;;;;;;26.81;36.96;101283.91;5057383;28;20032;-84
2022/07/21 06:07:48;;;;;;;14.43;6.35;;;;;;;26.95;36.67;101288.56;5074338;28;20039;-90
2022/07/21 06:10:13;;;;;;;10.02;5.82;;;;;;;26.87;36.58;101251.38;5041332;28;20028;-84
2022/07/21 06:12:39;;;;;;;10.60;5.90;;;;;;;27.23;35.44;101290.88;5073239;28;20039;-90
2022/07/21 06:15:06;;;;;;;8.25;5.85;;;;;;;27.40;36.17;101293.34;5043263;28;20028;-94
2022/07/21 06:17:38;;;;;;;9.00;6.82;;;;;;;27.54;34.46;101296.34;5042460;28;20429;-92
2022/07/21 06:20:06;;;;;;;8.52;4.90;;;;;;;27.64;34.36;101292.50;5059323;28;20051;-94
2022/07/21 06:22:31;;;;;;;8.73;4.97;;;;;;;27.80;33.62;101296.13;5057269;28;20093;-92
2022/07/21 06:24:57;;;;;;;10.38;5.22;;;;;;;27.79;33.97;101278.50;5057388;28;20032;-94
2022/07/21 06:27:22;;;;;;;8.90;5.03;;;;;;;28.06;33.13;101296.69;5074740;28;20096;-87
2022/07/21 06:29:48;;;;;;;7.47;4.75;;;;;;;28.13;32.99;101281.69;5092975;28;20099;-87
2022/07/21 06:32:13;;;;;;;13.07;6.13;;;;;;;28.22;32.84;101270.03;5073155;28;20043;-84
2022/07/21 06:34:39;;;;;;;16.33;7.18;;;;;;;28.22;33.30;101262.03;5075240;28;20044;-91
2022/07/21 06:37:04;;;;;;;7.93;4.88;;;;;;;28.47;32.81;101272.56;5074706;28;20062;-91
2022/07/21 06:39:30;;;;;;;8.55;4.95;;;;;;;28.55;33.44;101275.16;5041921;28;20485;-95
2022/07/21 06:41:55;;;;;;;6.68;4.80;;;;;;;28.65;32.62;101265.09;5043072;28;20150;-90
2022/07/21 06:44:21;;;;;;;11.88;6.53;;;;;;;28.77;32.84;101273.50;5058881;28;20489;-93
2022/07/21 06:46:46;;;;;;;15.15;10.65;;;;;;;28.92;32.51;101286.91;5057888;28;20028;-88
2022/07/21 06:49:12;;;;;;;9.20;7.78;;;;;;;28.89;31.60;101252.63;5076256;28;20023;-90
2022/07/21 06:51:37;;;;;;;6.55;4.45;;;;;;;28.82;32.02;101239.19;5091909;28;20063;-90
2022/07/21 06:54:03;;;;;;;9.38;4.72;;;;;;;29.13;32.18;101279.06;5073596;28;20685;-88
2022/07/21 06:56:28;;;;;;;6.78;4.65;;;;;;;29.26;31.93;101271.28;5039584;28;20115;-87
2022/07/21 06:58:54;;;;;;;8.60;5.15;;;;;;;29.32;31.50;101273.22;5056059;28;20059;-89
2022/07/21 07:01:19;;;;;;;10.30;5.40;;;;;;;29.31;31.49;101250.25;5072204;28;20031;-87
2022/07/21 07:03:45;;;;;;;13.20;5.10;;;;;;;29.39;31.47;101263.47;5071905;28;20463;-87
2022/07/21 07:06:11;;;;;;;9.05;4.95;;;;;;;29.57;31.13;101270.31;5056470;28;20067;-93
2022/07/21 07:08:38;;;;;;;17.60;13.55;;;;;;;29.67;31.69;101278.88;5041328;28;20063;-90
2022/07/21 07:11:04;;;;;;;6.95;5.25;;;;;;;29.79;31.07;101269.38;5071310;28;20103;-84
2022/07/21 07:13:29;;;;;;;8.98;5.07;;;;;;;29.94;31.05;101262.19;5072448;28;20480;-85
2022/07/21 07:15:55;;;;;;;8.45;5.60;;;;;;;30.03;31.71;101259.44;5071800;28;21632;-84
2022/07/21 07:18:22;;;;;;;10.70;5.22;;;;;;;30.13;30.71;101262.66;5090063;28;20048;-84
2022/07/21 07:20:47;;;;;;;15.85;13.90;;;;;;;30.29;28.97;101265.09;5037841;28;20031;-84
2022/07/21 07:23:13;;;;;;;8.70;6.97;;;;;;;30.33;28.44;101252.19;5053685;28;20824;-84
2022/07/21 07:25:38;;;;;;;6.32;4.50;;;;;;;30.53;27.78;101250.56;5055339;28;20028;-86
2022/07/21 07:28:05;;;;;;;9.70;4.72;;;;;;;30.52;27.68;101239.06;5055291;28;20489;-88
2022/07/21 07:30:30;;;;;;;5.65;4.80;;;;;;;30.78;27.32;101248.38;5055661;28;20417;-89
2022/07/21 07:32:56;;;;;;;6.32;4.20;;;;;;;30.87;27.47;101249.84;5037824;28;20069;-88
2022/07/21 07:35:21;;;;;;;9.57;5.15;;;;;;;30.98;27.84;101246.69;5037697;28;20504;-85
2022/07/21 07:37:47;;;;;;;13.18;4.47;;;;;;;30.98;26.87;101233.31;5069967;28;20394;-89
2022/07/21 07:40:15;;;;;;;9.55;4.80;;;;;;;31.13;28.85;101231.34;5053600;28;20024;-87
2022/07/21 07:42:41;;;;;;;7.90;4.55;;;;;;;31.32;27.22;101240.56;5054606;28;20478;-86
2022/07/21 07:45:07;;;;;;;9.77;4.47;;;;;;;31.38;26.73;101236.28;5055578;28;20566;-92
2022/07/21 07:47:33;;;;;;;7.03;4.70;;;;;;;31.55;27.42;101234.09;5055372;28;20024;-87
2022/07/21 07:49:58;;;;;;;8.52;5.13;;;;;;;31.57;27.68;101222.19;5056065;28;20031;-90
2022/07/21 07:52:25;;;;;;;11.90;5.47;;;;;;;31.74;26.99;101232.53;5036418;28;20035;-96
2022/07/21 07:54:50;;;;;;;258.10;19.92;;;;;;;31.90;26.71;101240.25;5036728;28;20020;-91
2022/07/21 07:57:16;;;;;;;334.65;26.77;;;;;;;31.90;26.24;101219.69;5056713;28;20028;-96
2022/07/21 07:59:42;;;;;;;8.00;4.30;;;;;;;31.98;25.80;101224.03;5040079;28;20039;-87
2022/07/21 08:02:07;;;;;;;23.92;9.75;;;;;;;32.08;26.53;101237.84;5071870;28;20390;-92
2022/07/21 08:04:33;;;;;;;24.98;6.60;;;;;;;32.30;25.85;101230.53;5055371;28;20036;-91
2022/07/21 08:06:58;;;;;;;9.63;5.45;;;;;;;32.29;25.71;101222.66;5055409;28;20115;-87
2022/07/21 08:09:24;;;;;;;11.68;5.13;;;;;;;32.35;25.56;101225.41;5072034;28;20028;-85
2022/07/21 08:11:50;;;;;;;11.27;4.82;;;;;;;32.28;25.38;101213.00;5071864;28;20081;-86
2022/07/21 08:14:16;;;;;;;8.77;4.47;;;;;;;32.32;25.64;101214.25;5054983;28;20030;-90
2022/07/21 08:16:42;;;;;;;14.25;4.82;;;;;;;32.48;24.47;101208.50;5056103;28;20131;-92
2022/07/21 08:19:07;;;;;;;6.15;4.57;;;;;;;32.59;24.96;101204.41;5054319;28;20031;-85
2022/07/21 08:21:33;;;;;;;10.98;7.20;;;;;;;32.83;24.47;101211.81;5061593;28;20112;-85
2022/07/21 08:24:00;;;;;;;7.20;4.93;;;;;;;32.94;25.22;101210.38;5054814;28;20079;-85
2022/07/21 08:26:25;;;;;;;8.50;4.90;;;;;;;32.82;25.33;101194.91;5055392;28;20035;-86
2022/07/21 08:28:52;;;;;;;11.90;4.82;;;;;;;32.89;23.73;101210.19;5055753;28;20024;-89
2022/07/21 08:31:18;;;;;;;8.40;4.38;;;;;;;33.02;24.01;101205.63;5055674;28;20141;-88
2022/07/21 08:33:44;;;;;;;5.10;4.25;;;;;;;33.14;23.43;101200.47;5054760;28;20081;-85
2022/07/21 08:36:10;;;;;;;5.95;5.35;;;;;;;33.27;23.57;101196.91;5071763;28;20054;-84
2022/07/21 08:38:35;;;;;;;7.75;4.57;;;;;;;33.40;23.47;101183.50;5055366;28;20390;-90
2022/07/21 08:41:00;;;;;;;13.85;6.32;;;;;;;33.42;23.41;101183.28;5053821;28;20027;-88
2022/07/21 08:43:26;;;;;;;12.23;10.93;;;;;;;33.54;23.95;101189.66;5038130;28;20028;-88
2022/07/21 08:45:52;;;;;;;7.15;4.70;;;;;;;33.71;23.04;101193.47;5071337;28;20507;-86
2022/07/21 08:48:19;;;;;;;9.68;4.90;;;;;;;33.69;23.78;101190.19;5054273;28;20031;-92
2022/07/21 08:50:45;;;;;;;9.05;5.25;;;;;;;33.83;23.62;101199.00;5038299;28;20036;-88
2022/07/21 08:53:11;;;;;;;6.35;4.70;;;;;;;33.86;24.71;101190.53;5053874;28;20034;-94
2022/07/21 08:55:39;;;;;;;10.00;5.07;;;;;;;33.83;22.89;101181.03;5038526;28;20035;-88
2022/07/21 08:58:06;;;;;;;7.55;5.15;;;;;;;33.91;23.08;101166.56;5038256;28;20032;-89
2022/07/21 09:00:34;;;;;;;10.23;4.88;;;;;;;33.90;22.43;101172.97;5053566;28;20020;-90
2022/07/21 09:03:09;;;;;;;11.75;5.25;;;;;;;33.94;22.95;101183.06;5054467;28;20321;-88
2022/07/21 09:05:34;;;;;;;6.78;5.15;;;;;;;34.11;23.25;101185.22;5092985;28;20140;-88
2022/07/21 09:08:00;;;;;;;9.45;5.10;;;;;;;34.14;22.52;101184.81;5056307;28;20106;-88
2022/07/21 09:10:28;;;;;;;9.35;5.22;;;;;;;34.16;22.92;101175.50;5076389;28;20115;-95
2022/07/21 09:12:59;;;;;;;7.07;4.97;;;;;;;34.32;22.73;101168.78;5041577;28;20024;-91
2022/07/21 09:15:26;;;;;;;6.47;4.77;;;;;;;34.60;22.65;101172.91;5059625;28;20028;-87
2022/07/21 09:18:11;;;;;;;6.07;4.40;;;;;;;34.85;21.87;101170.19;5054555;28;20371;-95
2022/07/21 09:20:37;;;;;;;5.25;4.55;;;;;;;34.81;21.69;101172.53;5073180;28;20513;-89
2022/07/21 09:23:11;;;;;;;10.45;6.13;;;;;;;34.76;22.94;101164.28;5090253;28;20024;-86
2022/07/21 09:25:50;;;;;;;13.57;10.63;;;;;;;34.59;22.10;101144.38;5054449;28;20440;-86
2022/07/21 09:28:23;;;;;;;10.27;6.75;;;;;;;34.78;22.13;101159.50;5056593;28;20024;-94
2022/07/21 09:30:52;;;;;;;6.68;4.95;;;;;;;34.94;22.00;101155.47;5058405;28;20043;-86
2022/07/21 09:33:31;;;;;;;7.55;4.72;;;;;;;35.08;22.32;101157.75;5094379;28;20028;-91
2022/07/21 09:36:03;;;;;;;7.07;4.63;;;;;;;34.88;21.17;101132.97;5044562;28;20070;-93
2022/07/21 09:38:29;;;;;;;;;;;;;;;34.94;21.59;101153.59;5058878;28;20051;-92
2022/07/21 09:40:56;;;;;;;7.20;4.78;;;;;;;34.94;21.47;101142.84;5077169;28;19912;-93
2022/07/21 09:43:49;;;;;;;6.32;4.70;;;;;;;34.71;21.04;101151.53;5057305;28;20020;-87
2022/07/21 09:46:16;;;;;;;6.13;4.80;;;;;;;34.58;21.61;101143.56;5069534;28;20124;-88
2022/07/21 09:48:42;;;;;;;11.57;5.13;;;;;;;34.69;21.28;101142.03;5075546;28;20035;-86
2022/07/21 09:51:30;;;;;;;6.00;4.60;;;;;;;34.96;20.94;101140.75;5069821;28;20020;-88
2022/07/21 09:53:58;;;;;;;8.57;4.90;;;;;;;35.15;21.45;101141.56;5073789;28;20024;-87
2022/07/21 09:56:24;;;;;;;7.57;4.75;;;;;;;35.40;20.88;101140.66;5051998;28;20163;-89
2022/07/21 09:58:51;;;;;;;11.45;9.32;;;;;;;35.47;20.88;101141.41;5074507;28;20032;-86
2022/07/21 10:01:17;;;;;;;7.78;4.60;;;;;;;35.47;20.31;101123.41;5039164;28;20458;-86
2022/07/21 10:03:46;;;;;;;7.80;4.68;;;;;;;35.50;19.92;101132.91;5059181;28;20036;-91
2022/07/21 10:06:11;;;;;;;7.65;5.47;;;;;;;35.56;20.47;101131.97;5049915;28;20052;-88
2022/07/21 10:08:37;;;;;;;7.07;4.72;;;;;;;35.91;20.43;101124.88;5043531;28;20075;-88
2022/07/21 10:11:03;;;;;;;9.98;5.57;;;;;;;36.01;20.04;101124.31;5040190;28;20116;-82
2022/07/21 10:13:28;;;;;;;6.18;4.38;;;;;;;36.01;19.35;101112.72;5068615;28;20020;-86
2022/07/21 10:15:54;;;;;;;6.97;5.15;;;;;;;36.15;19.05;101114.97;5061107;28;20043;-85
2022/07/21 10:18:20;;;;;;;9.55;4.63;;;;;;;36.19;19.52;101110.78;5069537;28;20162;-88
2022/07/21 10:20:47;;;;;;;6.53;4.60;;;;;;;36.20;19.18;101101.63;5029807;28;20025;-85
2022/07/21 10:23:34;;;;;;;7.10;4.30;;;;;;;36.02;18.86;101104.41;5070976;28;20058;-87
2022/07/21 10:26:02;;;;;;;6.93;4.75;;;;;;;35.92;18.85;101094.22;5087379;28;20020;-84
2022/07/21 10:28:28;;;;;;;7.63;4.80;;;;;;;36.10;19.00;101100.56;5042253;28;20756;-85
2022/07/21 10:30:55;;;;;;;6.13;4.70;;;;;;;36.15;18.47;101103.38;5063099;28;20073;-83
2022/07/21 10:33:22;;;;;;;7.35;4.80;;;;;;;36.23;18.48;101097.66;5072424;28;20036;-91
2022/07/21 10:35:50;;;;;;;11.07;4.90;;;;;;;36.24;18.60;101085.00;5051762;28;20036;-92
2022/07/21 10:38:32;;;;;;;7.28;4.97;;;;;;;36.29;18.63;101061.69;5056421;28;20032;-92
2022/07/21 10:40:58;;;;;;;8.40;5.00;;;;;;;36.41;18.72;101083.28;5072279;28;20043;-89
2022/07/21 10:43:24;;;;;;;7.50;4.90;;;;;;;36.62;18.60;101088.06;5055117;28;20039;-89
2022/07/21 10:45:50;;;;;;;12.40;6.53;;;;;;;36.89;18.77;101083.00;5075690;28;20032;-87
2022/07/21 10:48:37;;;;;;;6.88;4.70;;;;;;;37.00;18.57;101084.03;5058626;28;20050;-90
2022/07/21 10:51:09;;;;;;;6.63;4.90;;;;;;;37.10;18.58;101062.66;5076167;28;20539;-88
2022/07/21 10:53:35;;;;;;;6.57;5.10;;;;;;;37.02;17.82;101071.94;5057340;28;20466;-87
2022/07/21 10:56:01;;;;;;;7.32;5.40;;;;;;;37.17;18.75;101076.00;5057723;28;20118;-85
2022/07/21 10:58:27;;;;;;;7.03;4.78;;;;;;;37.05;17.52;101065.25;5039375;28;20028;-85
2022/07/21 11:00:53;;;;;;;9.18;5.18;;;;;;;37.17;18.10;101062.50;5057338;28;20112;-88
2022/07/21 11:03:38;;;;;;;9.40;5.78;;;;;;;37.18;18.33;101059.59;5085626;28;20115;-85
2022/07/21 11:06:07;;;;;;;7.00;5.28;;;;;;;37.36;18.02;101058.59;5071853;28;20024;-86
2022/07/21 11:08:33;;;;;;;6.13;5.10;;;;;;;37.43;17.53;101051.16;5073534;28;20141;-86
2022/07/21 11:11:16;;;;;;;8.10;5.70;;;;;;;37.44;17.49;101051.97;5049005;28;20031;-83
2022/07/21 11:14:18;;;;;;;10.15;6.43;;;;;;;37.36;18.45;101049.66;5059862;28;20029;-83
2022/07/21 11:16:52;;;;;;;7.43;4.97;;;;;;;37.17;18.53;101043.63;5067969;28;20063;-83
2022/07/21 11:19:39;;;;;;;9.63;5.35;;;;;;;37.17;18.03;101040.94;5079983;28;20028;-89
2022/07/21 11:22:06;;;;;;;8.82;5.40;;;;;;;37.22;18.98;101033.75;5078052;28;20036;-85
2022/07/21 11:24:31;;;;;;;9.10;5.15;;;;;;;37.24;17.74;101037.03;5062456;28;20028;-83
2022/07/21 11:27:10;;;;;;;14.07;11.65;;;;;;;37.18;17.57;101039.91;5002072;28;20036;-83
2022/07/21 11:29:36;;;;;;;7.63;5.25;;;;;;;37.24;17.40;101020.03;5034523;28;20043;-86
2022/07/21 11:32:03;;;;;;;8.57;5.57;;;;;;;37.40;17.18;101021.16;5028751;28;20034;-88
2022/07/21 11:34:41;;;;;;;7.47;4.70;;;;;;;37.20;16.87;101013.50;5020726;28;20397;-86
2022/07/21 11:37:06;;;;;;;8.75;5.03;;;;;;;37.53;17.45;101016.25;5028915;28;20131;-84
2022/07/21 11:39:32;;;;;;;9.15;5.50;;;;;;;37.74;16.84;101020.09;5029552;28;20437;-83
2022/07/21 11:42:08;;;;;;;7.25;5.20;;;;;;;37.69;16.89;101009.25;5020832;28;20044;-81
2022/07/21 11:44:33;;;;;;;6.20;4.60;;;;;;;37.66;15.95;101000.81;5016511;28;20025;-82
2022/07/21 11:47:00;;;;;;;5.75;4.45;;;;;;;37.96;15.49;100995.13;5014323;28;20030;-84
2022/07/21 11:49:26;;;;;;;8.38;4.93;;;;;;;38.08;14.90;100993.13;5018706;28;20038;-83
2022/07/21 11:52:11;;;;;;;7.38;4.97;;;;;;;38.21;14.39;101002.75;5013803;28;20040;-85
2022/07/21 11:54:48;;;;;;;10.40;4.70;;;;;;;38.09;14.81;101000.16;5020838;28;20037;-84
2022/07/21 11:57:14;;;;;;;8.00;4.50;;;;;;;38.08;14.95;100987.72;5017191;28;20026;-86
2022/07/21 11:59:41;;;;;;;9.52;5.53;;;;;;;38.25;15.02;100993.94;5040029;28;21132;-86
2022/07/21 12:02:20;;;;;;;9.65;5.38;;;;;;;38.41;13.92;100992.25;5029451;28;20452;-88
2022/07/21 12:04:46;;;;;;;9.27;4.35;;;;;;;38.63;14.52;100989.53;5014339;28;20050;-91
2022/07/21 12:07:16;;;;;;;11.02;6.20;;;;;;;38.68;14.64;100981.53;5031931;28;21081;-83
2022/07/21 12:09:42;;;;;;;9.63;5.22;;;;;;;38.48;15.43;100989.38;5020954;28;20392;-82
2022/07/21 12:12:08;;;;;;;10.32;5.53;;;;;;;38.21;15.86;100987.34;5014476;28;20112;-89
2022/07/21 12:15:04;;;;;;;6.80;5.15;;;;;;;38.34;15.82;100970.81;5017845;28;21289;-88
2022/07/21 12:17:34;;;;;;;9.55;5.95;;;;;;;38.55;15.81;100960.28;5012168;28;20081;-85
2022/07/21 12:20:00;;;;;;;9.18;5.32;;;;;;;38.31;16.02;100965.91;5018724;28;20483;-84
2022/07/21 12:22:46;;;;;;;7.68;5.80;;;;;;;38.52;15.64;100960.75;4995703;28;20121;-86
2022/07/21 12:25:16;;;;;;;10.60;6.35;;;;;;;38.40;16.29;100959.00;4984120;28;20103;-87
2022/07/21 12:27:46;;;;;;;10.98;6.18;;;;;;;38.52;16.39;100960.75;5013707;28;20033;-87
2022/07/21 12:30:30;;;;;;;8.27;5.47;;;;;;;38.57;15.68;100952.72;5014851;28;20479;-87
2022/07/21 12:33:00;;;;;;;11.25;5.90;;;;;;;38.56;15.93;100951.09;5029001;28;20026;-86
2022/07/21 12:35:26;;;;;;;9.95;5.88;;;;;;;38.58;15.68;100957.06;5027595;28;20666;-85
2022/07/21 12:38:12;;;;;;;12.45;7.78;;;;;;;38.57;15.44;100958.13;5013294;28;20042;-83
2022/07/21 12:40:42;;;;;;;16.15;6.53;;;;;;;38.29;15.71;100935.63;5021954;28;20550;-83
2022/07/21 12:43:11;;;;;;;11.68;5.90;;;;;;;38.32;15.01;100954.03;5025318;28;20025;-85
2022/07/21 12:45:53;;;;;;;11.65;5.88;;;;;;;38.25;14.74;100953.41;5020914;28;20033;-85
2022/07/21 12:48:29;;;;;;;11.10;5.50;;;;;;;38.30;15.30;100936.44;5032150;28;20029;-84
2022/07/21 12:51:06;;;;;;;11.32;5.63;;;;;;;38.42;16.06;100940.63;5014518;28;20026;-86
2022/07/21 12:53:33;;;;;;;10.63;6.93;;;;;;;38.39;15.87;100916.84;5018435;28;20092;-87
2022/07/21 12:55:59;;;;;;;17.02;7.25;;;;;;;38.57;14.69;100931.09;5016064;28;20108;-85
2022/07/21 12:58:24;;;;;;;11.93;7.18;;;;;;;38.61;14.13;100937.63;5014982;28;20042;-84
2022/07/21 13:00:50;;;;;;;12.77;6.43;;;;;;;38.51;14.88;100934.78;5032344;28;20045;-86
2022/07/21 13:03:15;;;;;;;14.98;5.97;;;;;;;38.42;14.49;100889.28;4999167;28;20038;-86
2022/07/21 13:05:41;;;;;;;13.15;6.82;;;;;;;38.73;14.28;100914.78;5016851;28;20494;-85
2022/07/21 13:08:07;;;;;;;14.52;6.25;;;;;;;38.67;14.49;100923.13;5032720;28;20088;-86
2022/07/21 13:10:32;;;;;;;13.85;6.15;;;;;;;38.62;14.87;100912.22;5011593;28;20406;-83
2022/07/21 13:12:58;;;;;;;9.73;6.05;;;;;;;38.51;14.18;100899.66;5016603;28;20037;-86
2022/07/21 13:15:23;;;;;;;12.25;6.10;;;;;;;38.44;14.25;100900.66;5017571;28;20539;-82
2022/07/21 13:17:49;;;;;;;13.52;6.75;;;;;;;38.54;14.58;100909.94;5038310;28;20060;-82
2022/07/21 13:20:14;;;;;;;12.23;6.35;;;;;;;38.24;15.33;100897.72;5041453;28;20703;-82
2022/07/21 13:22:40;;;;;;;9.20;6.15;;;;;;;38.27;14.84;100908.03;5018210;28;20823;-85
2022/07/21 13:25:06;;;;;;;12.55;6.30;;;;;;;38.14;14.59;100890.28;5032840;28;20025;-84
2022/07/21 13:27:35;;;;;;;11.18;6.43;;;;;;;38.20;14.54;100893.88;5032480;28;20030;-83
2022/07/21 13:30:02;;;;;;;13.90;10.13;;;;;;;38.18;14.89;100891.44;5032432;28;20060;-84
2022/07/21 13:32:28;;;;;;;14.02;7.03;;;;;;;38.19;15.65;100889.53;5025202;28;20037;-86
2022/07/21 13:34:54;;;;;;;8.55;6.53;;;;;;;38.20;15.71;100884.94;5017282;28;20535;-85
2022/07/21 13:37:19;;;;;;;14.15;7.15;;;;;;;38.06;16.40;100877.22;5032659;28;20033;-84
2022/07/21 13:39:45;;;;;;;11.55;7.40;;;;;;;37.98;15.89;100879.56;5015775;28;20499;-83
2022/07/21 13:44:46;;;;;;;13.25;7.82;;;;;;;37.98;15.79;100874.97;5171985;23;20054;-82
2022/07/21 13:47:11;;;;;;;13.18;7.63;;;;;;;38.00;16.15;100882.81;4992151;23;20511;-80
2022/07/21 13:49:37;;;;;;;13.10;7.60;;;;;;;38.01;16.05;100884.44;4970075;28;20092;-82
2022/07/21 13:52:03;;;;;;;16.40;7.70;;;;;;;37.88;15.63;100872.13;4970508;28;20118;-82
2022/07/21 13:54:28;;;;;;;13.82;7.45;;;;;;;37.77;15.94;100868.47;4965846;28;20027;-83
2022/07/21 13:56:56;;;;;;;11.43;7.60;;;;;;;37.82;16.05;100865.03;4963191;28;20187;-82
2022/07/21 13:59:21;;;;;;;9.98;7.32;;;;;;;37.92;15.81;100880.53;4964293;28;20030;-82
2022/07/21 14:01:47;;;;;;;12.57;6.60;;;;;;;37.99;15.84;100879.28;4967687;28;20031;-81
2022/07/21 14:04:12;;;;;;;15.93;8.88;;;;;;;37.94;15.77;100883.81;4950251;28;20030;-80
2022/07/21 14:06:38;;;;;;;13.68;6.32;;;;;;;37.81;15.59;100858.81;4951459;28;20053;-80
2022/07/21 14:09:04;;;;;;;11.52;6.35;;;;;;;37.61;15.73;100864.72;4966440;28;20138;-80
2022/07/21 14:11:29;;;;;;;9.10;6.10;;;;;;;37.67;15.31;100868.31;4951090;28;20034;-81
2022/07/21 14:13:55;;;;;;;10.20;6.13;;;;;;;37.66;15.24;100861.28;4968959;28;20055;-81
2022/07/21 14:16:21;;;;;;;14.70;6.45;;;;;;;37.63;15.08;100864.47;4955011;28;20026;-80
2022/07/21 14:18:46;;;;;;;13.80;6.70;;;;;;;37.58;15.46;100848.22;4964783;28;21259;-84
2022/07/21 14:21:12;;;;;;;9.00;6.72;;;;;;;37.71;15.65;100861.34;4950339;28;20041;-84
2022/07/21 14:23:38;;;;;;;12.68;6.43;;;;;;;37.75;15.52;100859.75;4949670;28;20031;-82
2022/07/21 14:26:04;;;;;;;14.00;7.25;;;;;;;37.71;15.43;100847.03;4950185;28;20522;-85
2022/07/21 14:28:29;;;;;;;14.73;9.02;;;;;;;37.68;15.65;100847.53;4965599;28;20065;-84
2022/07/21 14:30:55;;;;;;;11.13;7.07;;;;;;;37.70;15.64;100856.19;4965394;28;20034;-82
